Inicio METAR Ruta Wind Satelite

Informe Meteorológico

Fecha: 2020/11/30 15:20:42 Local
2020.11.30 20:20 UTC


Estado: VENCIDO
Operación:
Monteria / Los Garzones, Colombia (SKMR) 08-49N 075-51W 26M
2020.09.30 1900 UTC
Wind: from the SW (220 degrees) at 5 MPH (4 KT):0
Visibility: greater than 7 mile(s):0
Sky conditions: mostly cloudy
Temperature: 84 F (29 C)
Dew Point: 73 F (23 C)
Relative Humidity: 70%
Pressure (altimeter): 29.78 in. Hg (1008 hPa)
ob: SKMR 301900Z 22004KT 9999 FEW015 BKN200 29/23 A2978
cycle: 19